Time;durP1;ratioP1;P1;durP2;ratioP2;P2;SDS_P1;SDS_P2;PMS_P1;PMS_P2;Temp;Humidity;BMP_temperature;BMP_pressure;BME280_temperature;BME280_humidity;BME280_pressure;Samples;Min_cycle;Max_cycle;Signal;HPM_P1;HPM_P2
2022/05/20 00:01:22;;;;;;;6.47;5.97;;;20.60;99.90;;;;;;10411206;28;20228;-77
2022/05/20 00:06:24;;;;;;;7.07;6.37;;;20.70;99.90;;;;;;10411083;28;20202;-76
2022/05/20 00:11:28;;;;;;;6.63;5.90;;;20.60;99.90;;;;;;10407152;28;20325;-76
2022/05/20 00:16:30;;;;;;;6.67;6.13;;;20.50;99.90;;;;;;10410593;28;20609;-76
2022/05/20 00:21:33;;;;;;;7.67;6.37;;;20.50;99.90;;;;;;10410752;28;20689;-76
2022/05/20 00:26:37;;;;;;;7.47;6.87;;;20.50;99.90;;;;;;10410520;28;20221;-76
2022/05/20 00:31:39;;;;;;;7.53;6.93;;;20.50;99.90;;;;;;10407253;28;20228;-76
2022/05/20 00:36:41;;;;;;;7.20;6.60;;;20.50;99.90;;;;;;10408510;28;20226;-76
2022/05/20 00:41:45;;;;;;;7.90;7.07;;;20.40;99.90;;;;;;10404639;28;20624;-76
2022/05/20 00:46:47;;;;;;;7.57;6.80;;;20.40;99.90;;;;;;10409610;28;20233;-77
2022/05/20 00:51:54;;;;;;;7.13;6.53;;;20.30;99.90;;;;;;10392121;28;20252;-76
2022/05/20 00:57:02;;;;;;;7.53;7.03;;;20.30;99.90;;;;;;10408928;28;20226;-75
2022/05/20 01:02:09;;;;;;;10.53;6.43;;;20.30;99.90;;;;;;10385353;28;20236;-76
2022/05/20 01:07:12;;;;;;;7.27;6.67;;;20.20;99.90;;;;;;10407883;28;20221;-76
2022/05/20 01:12:16;;;;;;;7.43;6.70;;;20.10;99.90;;;;;;10407481;28;20284;-76
2022/05/20 01:17:18;;;;;;;9.47;7.20;;;20.10;99.90;;;;;;10408260;28;20225;-77
2022/05/20 01:22:28;;;;;;;8.40;7.37;;;20.10;99.90;;;;;;10408726;28;20226;-76
2022/05/20 01:27:31;;;;;;;8.43;7.40;;;20.10;99.90;;;;;;10409218;28;20225;-77
2022/05/20 01:32:33;;;;;;;10.37;6.80;;;19.90;99.90;;;;;;10409205;28;20255;-76
2022/05/20 01:37:35;;;;;;;8.33;7.33;;;19.90;99.90;;;;;;10408540;28;20217;-76
2022/05/20 01:42:46;;;;;;;6.90;6.40;;;19.80;99.90;;;;;;10404803;28;20249;-76
2022/05/20 01:47:56;;;;;;;7.00;6.40;;;19.60;99.90;;;;;;10390072;28;20717;-76
2022/05/20 01:53:03;;;;;;;9.53;7.63;;;19.70;99.90;;;;;;10403745;28;20198;-76
2022/05/20 01:58:15;;;;;;;7.57;6.93;;;19.60;99.90;;;;;;10407934;28;20225;-76
2022/05/20 02:03:22;;;;;;;8.33;7.53;;;19.60;99.90;;;;;;10408257;28;20260;-76
2022/05/20 02:08:28;;;;;;;8.03;7.07;;;19.60;99.90;;;;;;10413113;28;20257;-77
2022/05/20 02:13:35;;;;;;;8.00;7.30;;;19.60;99.90;;;;;;10396460;28;20229;-77
2022/05/20 02:18:42;;;;;;;10.47;7.50;;;19.60;99.90;;;;;;10414730;28;20313;-76
2022/05/20 02:23:48;;;;;;;7.07;6.57;;;19.60;99.90;;;;;;10397989;28;20260;-76
2022/05/20 02:28:56;;;;;;;8.27;7.50;;;19.60;99.90;;;;;;10414507;28;20752;-77
2022/05/20 02:33:58;;;;;;;8.10;7.40;;;19.50;99.90;;;;;;10397138;28;20201;-77
2022/05/20 02:39:00;;;;;;;8.60;7.83;;;19.50;99.90;;;;;;10414455;28;20218;-76
2022/05/20 02:44:04;;;;;;;7.90;7.20;;;19.50;99.90;;;;;;10388017;28;20238;-77
2022/05/20 02:49:06;;;;;;;8.47;7.87;;;19.40;99.90;;;;;;10413982;28;20312;-77
2022/05/20 02:54:08;;;;;;;9.77;8.87;;;19.20;99.90;;;;;;10413637;28;20225;-76
2022/05/20 03:04:31;;;;;;;8.37;7.10;;;19.30;99.90;;;;;;10413382;28;20233;-76
2022/05/20 03:09:34;;;;;;;8.60;7.77;;;19.40;99.90;;;;;;10413152;28;20225;-76
2022/05/20 03:14:38;;;;;;;8.50;7.70;;;19.30;99.90;;;;;;10407773;28;20670;-76
2022/05/20 03:19:40;;;;;;;7.73;7.03;;;19.30;99.90;;;;;;10412720;28;20679;-76
2022/05/20 03:24:42;;;;;;;8.50;7.80;;;19.40;99.90;;;;;;10395179;28;20720;-76
2022/05/20 03:29:46;;;;;;;10.90;9.13;;;19.40;99.90;;;;;;10412251;28;20295;-76
2022/05/20 03:34:48;;;;;;;8.10;7.43;;;19.50;99.90;;;;;;10412576;28;20194;-76
2022/05/20 03:39:50;;;;;;;8.67;7.70;;;19.50;99.90;;;;;;10394920;28;20317;-76
2022/05/20 03:44:54;;;;;;;10.03;8.50;;;19.50;99.90;;;;;;10393938;28;20228;-76
2022/05/20 03:49:56;;;;;;;9.33;8.50;;;19.50;99.90;;;;;;10393701;28;20325;-76
2022/05/20 03:54:59;;;;;;;9.83;8.40;;;19.60;99.90;;;;;;10393677;28;20200;-76
2022/05/20 04:00:03;;;;;;;10.80;9.77;;;19.70;99.90;;;;;;10406931;28;20677;-76
2022/05/20 04:05:13;;;;;;;8.97;8.03;;;19.80;99.90;;;;;;10392920;28;20588;-76
2022/05/20 04:10:16;;;;;;;8.60;7.90;;;19.80;99.90;;;;;;10411549;28;20673;-76
2022/05/20 04:15:19;;;;;;;9.50;8.70;;;19.80;99.90;;;;;;10389547;28;20194;-76
2022/05/20 04:20:21;;;;;;;8.97;8.10;;;19.80;99.90;;;;;;10393537;28;20249;-76
2022/05/20 04:25:23;;;;;;;7.60;6.90;;;19.90;99.90;;;;;;10393030;28;20325;-77
2022/05/20 04:30:27;;;;;;;8.57;7.80;;;19.90;99.90;;;;;;10405630;28;20649;-77
2022/05/20 04:35:29;;;;;;;8.87;8.10;;;19.90;99.90;;;;;;10410245;28;20316;-77
2022/05/20 04:40:31;;;;;;;8.60;7.90;;;19.90;99.90;;;;;;10387692;28;20681;-77
2022/05/20 04:51:06;;;;;;;8.37;7.57;;;19.90;99.90;;;;;;10319953;28;20241;-77
2022/05/20 04:56:08;;;;;;;7.70;7.00;;;20.00;99.90;;;;;;10392241;28;20229;-77
2022/05/20 05:01:12;;;;;;;8.00;7.40;;;20.00;99.90;;;;;;10408347;28;20224;-77
2022/05/20 05:06:14;;;;;;;8.30;7.60;;;20.10;99.90;;;;;;10409920;28;20202;-77
2022/05/20 05:11:16;;;;;;;7.80;7.10;;;20.10;99.90;;;;;;10407615;28;20232;-77
2022/05/20 05:16:19;;;;;;;8.60;7.77;;;20.30;99.90;;;;;;10369805;28;20233;-77
2022/05/20 05:21:21;;;;;;;7.60;7.00;;;20.30;99.90;;;;;;10409127;28;20280;-77
2022/05/20 05:26:24;;;;;;;8.73;7.00;;;20.40;99.90;;;;;;10408987;28;20205;-77
2022/05/20 05:31:28;;;;;;;8.20;7.50;;;20.40;99.90;;;;;;10390997;28;20200;-77
2022/05/20 05:36:30;;;;;;;8.13;7.53;;;20.50;99.90;;;;;;10408348;28;20194;-77
2022/05/20 05:41:33;;;;;;;8.53;6.73;;;20.40;99.90;;;;;;10407701;28;20221;-77
2022/05/20 05:46:36;;;;;;;7.23;6.73;;;20.50;99.90;;;;;;10417083;28;20233;-77
2022/05/20 05:51:38;;;;;;;8.40;7.70;;;20.60;99.90;;;;;;10416392;28;20299;-77
2022/05/20 05:56:40;;;;;;;9.23;7.13;;;20.70;99.90;;;;;;10416414;28;20220;-77
2022/05/20 06:01:43;;;;;;;7.07;6.57;;;20.70;99.90;;;;;;10415985;28;20720;-77
2022/05/20 06:06:46;;;;;;;7.67;7.07;;;20.80;99.90;;;;;;10393922;28;20237;-77
2022/05/20 06:11:49;;;;;;;6.27;5.77;;;20.90;99.90;;;;;;10409768;28;20198;-77
2022/05/20 06:16:52;;;;;;;6.77;6.23;;;21.00;99.90;;;;;;10415419;28;20218;-77
2022/05/20 06:21:54;;;;;;;6.90;6.40;;;21.10;99.90;;;;;;10415403;28;20759;-77
2022/05/20 06:26:56;;;;;;;6.93;6.43;;;21.20;99.90;;;;;;10397166;28;20769;-77
2022/05/20 06:32:00;;;;;;;8.13;7.43;;;21.40;99.90;;;;;;10414962;28;20373;-77
2022/05/20 06:42:21;;;;;;;6.93;6.33;;;21.60;99.90;;;;;;10412949;28;20220;-77
2022/05/20 06:47:27;;;;;;;6.70;6.07;;;21.80;99.90;;;;;;10413748;28;20673;-77
2022/05/20 06:52:29;;;;;;;6.57;5.97;;;22.00;99.90;;;;;;10408677;28;20229;-77
2022/05/20 06:57:32;;;;;;;5.70;5.20;;;22.20;99.90;;;;;;10414429;28;20759;-77
2022/05/20 07:02:35;;;;;;;6.30;5.80;;;22.40;99.90;;;;;;10413681;28;20260;-77
2022/05/20 07:07:39;;;;;;;6.50;5.43;;;22.70;99.90;;;;;;10413521;28;20304;-78
2022/05/20 07:12:41;;;;;;;6.40;5.90;;;23.00;99.90;;;;;;10412974;28;20714;-78
2022/05/20 07:17:47;;;;;;;5.70;5.20;;;23.30;99.90;;;;;;10412901;28;20272;-78
2022/05/20 07:22:50;;;;;;;6.20;5.70;;;23.50;99.90;;;;;;10412691;28;20307;-78
2022/05/20 07:27:52;;;;;;;8.50;7.90;;;23.70;99.90;;;;;;10412841;28;20740;-78
2022/05/20 07:32:55;;;;;;;9.43;5.70;;;23.90;99.90;;;;;;10412559;28;20264;-77
2022/05/20 07:37:58;;;;;;;6.27;5.77;;;24.20;99.90;;;;;;10394773;28;20243;-77
2022/05/20 07:43:00;;;;;;;5.60;4.90;;;24.40;99.90;;;;;;10412011;28;20264;-77
2022/05/20 07:48:04;;;;;;;7.23;6.53;;;24.80;99.90;;;;;;10411959;28;20241;-77
2022/05/20 07:53:21;;;;;;;5.80;5.20;;;25.10;99.90;;;;;;10412824;28;20673;-77
2022/05/20 07:58:28;;;;;;;5.50;4.93;;;25.60;99.90;;;;;;10408698;28;20308;-77
2022/05/20 08:08:54;;;;;;;6.20;5.60;;;26.90;99.90;;;;;;10414237;28;20222;-77
2022/05/20 08:13:56;;;;;;;5.87;5.37;;;27.50;99.90;;;;;;10409753;28;20206;-77
2022/05/20 08:19:00;;;;;;;5.63;5.17;;;28.10;99.90;;;;;;10412319;28;20284;-77
2022/05/20 08:24:02;;;;;;;5.13;4.73;;;28.70;99.90;;;;;;10411124;28;20222;-77
2022/05/20 08:29:04;;;;;;;5.97;5.57;;;29.20;98.60;;;;;;10403672;28;20296;-77
2022/05/20 08:34:08;;;;;;;5.63;5.10;;;29.70;98.20;;;;;;10386355;28;20571;-77
2022/05/20 08:39:12;;;;;;;5.00;4.60;;;29.90;94.30;;;;;;10410554;28;20606;-78
2022/05/20 08:44:18;;;;;;;5.43;4.93;;;30.10;94.60;;;;;;10404509;28;20221;-77
2022/05/20 08:49:25;;;;;;;5.17;4.77;;;30.40;93.50;;;;;;10409802;28;20332;-77
2022/05/20 08:54:27;;;;;;;8.67;5.90;;;30.50;91.70;;;;;;10403263;28;20215;-77
2022/05/20 08:59:30;;;;;;;6.30;5.70;;;30.80;91.20;;;;;;10401842;28;20214;-77
2022/05/20 09:04:34;;;;;;;5.43;4.93;;;31.10;92.40;;;;;;10372413;28;20763;-77
2022/05/20 09:09:46;;;;;;;5.33;4.83;;;31.10;90.00;;;;;;10402095;28;20218;-77
2022/05/20 09:20:17;;;;;;;7.03;4.77;;;31.60;89.50;;;;;;10346719;28;20222;-77
2022/05/20 09:25:21;;;;;;;8.00;4.70;;;31.80;85.10;;;;;;10378415;28;20226;-77
2022/05/20 09:30:25;;;;;;;6.43;4.70;;;32.10;84.60;;;;;;10385368;28;20261;-77
2022/05/20 09:35:34;;;;;;;5.97;5.00;;;32.20;77.60;;;;;;10388306;28;20216;-77
2022/05/20 09:40:41;;;;;;;6.97;5.37;;;32.30;79.50;;;;;;10364671;28;20580;-77
2022/05/20 09:45:45;;;;;;;5.40;5.10;;;32.30;77.40;;;;;;10384980;28;20225;-77
2022/05/20 09:51:04;;;;;;;8.03;4.93;;;32.50;77.50;;;;;;10407400;28;20241;-77
2022/05/20 09:56:23;;;;;;;5.63;4.63;;;32.80;73.40;;;;;;10409123;28;20702;-77
2022/05/20 10:01:29;;;;;;;5.23;4.83;;;33.90;73.30;;;;;;10405568;28;20260;-77
2022/05/20 10:06:36;;;;;;;5.70;5.17;;;35.40;70.40;;;;;;10408206;28;20591;-77
2022/05/20 10:11:47;;;;;;;5.53;4.90;;;36.90;65.80;;;;;;10402984;28;20204;-77
2022/05/20 10:16:54;;;;;;;4.67;4.37;;;37.80;58.20;;;;;;10407802;28;20308;-77
2022/05/20 10:22:03;;;;;;;4.93;4.50;;;37.10;59.90;;;;;;10407640;28;20453;-77
2022/05/20 10:27:11;;;;;;;5.50;5.20;;;35.30;60.00;;;;;;10408433;28;20236;-77
2022/05/20 10:32:37;;;;;;;5.20;4.70;;;33.70;63.90;;;;;;10415686;28;20194;-77
2022/05/20 10:38:00;;;;;;;5.30;4.73;;;32.60;66.30;;;;;;10414842;28;20237;-77
2022/05/20 10:43:17;;;;;;;6.63;5.90;;;31.60;65.60;;;;;;10411887;28;20224;-77
2022/05/20 10:48:48;;;;;;;5.20;4.70;;;30.90;66.20;;;;;;10414509;28;20602;-77
2022/05/20 10:54:02;;;;;;;5.97;4.60;;;30.50;69.30;;;;;;10404117;28;20208;-76
2022/05/20 10:59:20;;;;;;;5.50;4.50;;;30.10;65.10;;;;;;10414187;28;20313;-77
2022/05/20 11:04:36;;;;;;;9.23;5.40;;;29.70;64.90;;;;;;10414485;28;20256;-77
2022/05/20 11:09:53;;;;;;;4.37;4.07;;;29.40;66.60;;;;;;10413754;28;20228;-76
2022/05/20 11:15:15;;;;;;;5.00;4.60;;;29.10;66.40;;;;;;10408565;28;20189;-76
2022/05/20 11:20:47;;;;;;;7.43;4.67;;;28.90;66.90;;;;;;10406391;28;20716;-76
2022/05/20 11:26:10;;;;;;;7.50;5.30;;;28.80;67.40;;;;;;10402497;28;20224;-77
2022/05/20 11:31:28;;;;;;;5.47;4.97;;;28.60;67.10;;;;;;10395117;28;20221;-77
2022/05/20 11:36:57;;;;;;;6.23;5.00;;;28.60;68.10;;;;;;10412642;28;20305;-77
2022/05/20 11:42:15;;;;;;;5.10;4.80;;;28.60;68.50;;;;;;10411434;28;20297;-77
2022/05/20 11:47:35;;;;;;;8.60;5.13;;;28.60;70.90;;;;;;10430260;22;20230;-81
2022/05/20 11:52:47;;;;;;;5.60;5.10;;;28.40;68.50;;;;;;10469769;28;20283;-82
2022/05/20 11:57:55;;;;;;;4.43;4.03;;;28.30;72.30;;;;;;10475560;28;20220;-82
2022/05/20 12:03:00;;;;;;;5.50;5.00;;;28.20;72.30;;;;;;10470722;28;20225;-81
2022/05/20 12:08:02;;;;;;;5.73;4.93;;;28.20;72.80;;;;;;10435679;28;20225;-82
2022/05/20 12:13:14;;;;;;;5.23;4.83;;;28.30;73.60;;;;;;10458823;28;20198;-82
2022/05/20 12:24:12;;;;;;;5.53;4.60;;;28.10;70.50;;;;;;10457958;28;20240;-83
2022/05/20 12:30:07;;;;;;;8.30;4.97;;;28.00;72.10;;;;;;10452181;28;20244;-81
2022/05/20 12:35:13;;;;;;;4.43;4.03;;;28.00;70.80;;;;;;10443769;28;20201;-83
2022/05/20 12:40:17;;;;;;;5.37;4.27;;;27.90;69.00;;;;;;10455915;28;20276;-81
2022/05/20 12:45:21;;;;;;;5.43;5.03;;;27.90;68.90;;;;;;10431951;28;20768;-83
2022/05/20 12:50:27;;;;;;;5.60;4.67;;;28.00;68.00;;;;;;10447207;28;20283;-81
2022/05/20 12:55:37;;;;;;;13.73;5.00;;;28.00;69.00;;;;;;10414158;28;20218;-81
2022/05/20 13:00:42;;;;;;;7.13;4.60;;;28.00;68.60;;;;;;10408083;28;20692;-81
2022/05/20 13:05:51;;;;;;;5.83;3.90;;;28.00;68.20;;;;;;10436213;28;20217;-80
2022/05/20 13:10:54;;;;;;;6.63;4.10;;;28.00;66.60;;;;;;10429694;28;20708;-81
2022/05/20 13:15:58;;;;;;;5.40;4.73;;;28.10;64.30;;;;;;10435977;28;20299;-81
2022/05/20 13:21:06;;;;;;;5.60;4.17;;;28.10;63.40;;;;;;10449074;28;20308;-80
2022/05/20 13:26:22;;;;;;;4.73;4.33;;;28.20;65.00;;;;;;10395736;28;20324;-81
2022/05/20 13:31:26;;;;;;;7.13;4.33;;;28.30;67.60;;;;;;10438461;28;20231;-81
2022/05/20 13:36:37;;;;;;;3.93;3.63;;;28.20;68.30;;;;;;10436435;28;20200;-80
2022/05/20 13:41:40;;;;;;;6.27;4.10;;;28.20;63.30;;;;;;10440271;28;20333;-82
2022/05/20 13:52:10;;;;;;;4.47;3.97;;;28.20;67.50;;;;;;10429047;28;20254;-81
2022/05/20 13:57:15;;;;;;;5.30;4.23;;;28.20;67.40;;;;;;10436190;28;20217;-82
2022/05/20 14:02:19;;;;;;;4.33;4.00;;;28.10;66.30;;;;;;10441207;28;20288;-81
2022/05/20 14:07:37;;;;;;;5.67;4.40;;;28.20;64.60;;;;;;10447928;28;20271;-82
2022/05/20 14:12:47;;;;;;;4.30;3.90;;;28.40;63.70;;;;;;10457969;28;20255;-80
2022/05/20 14:17:50;;;;;;;7.90;3.80;;;28.50;67.90;;;;;;10459382;28;20689;-81
2022/05/20 14:22:53;;;;;;;4.60;4.10;;;28.60;66.80;;;;;;10460685;28;20684;-81
2022/05/20 14:28:12;;;;;;;6.97;4.03;;;28.50;68.40;;;;;;10443437;28;20220;-81
2022/05/20 14:33:19;;;;;;;4.63;4.23;;;28.60;63.80;;;;;;10463773;28;20227;-81
2022/05/20 14:38:26;;;;;;;6.30;5.20;;;28.70;63.60;;;;;;10434565;28;20248;-81
2022/05/20 14:43:33;;;;;;;8.93;4.00;;;28.70;64.10;;;;;;10424543;28;20270;-81
2022/05/20 14:48:40;;;;;;;9.93;4.97;;;28.70;64.50;;;;;;10440483;28;20237;-82
2022/05/20 14:53:45;;;;;;;5.40;4.90;;;28.70;69.00;;;;;;10462239;28;20587;-81
2022/05/20 14:58:58;;;;;;;6.00;4.70;;;28.60;72.70;;;;;;10461498;28;20308;-81
2022/05/20 15:04:00;;;;;;;4.67;3.80;;;28.60;73.50;;;;;;10450078;28;20308;-82
2022/05/20 15:09:05;;;;;;;6.63;4.60;;;28.50;72.80;;;;;;10441935;28;20221;-82
2022/05/20 15:14:07;;;;;;;7.67;4.43;;;28.60;73.40;;;;;;10437179;28;20728;-81
2022/05/20 15:19:11;;;;;;;4.40;4.10;;;28.60;72.10;;;;;;10461658;28;20635;-80
2022/05/20 15:24:20;;;;;;;5.07;4.57;;;28.60;71.90;;;;;;10437222;28;20595;-82
2022/05/20 15:29:22;;;;;;;5.70;4.53;;;28.40;71.90;;;;;;10440161;28;20701;-83
2022/05/20 15:39:50;;;;;;;5.37;4.47;;;28.20;72.40;;;;;;10433702;28;20260;-81
2022/05/20 15:44:53;;;;;;;9.07;5.50;;;28.10;73.40;;;;;;10442484;28;20683;-80
2022/05/20 15:49:57;;;;;;;10.53;4.40;;;27.90;75.10;;;;;;10456740;28;20233;-81
2022/05/20 15:55:03;;;;;;;10.53;5.27;;;27.70;75.10;;;;;;10446118;28;20676;-82
2022/05/20 16:00:07;;;;;;;4.73;4.43;;;27.50;76.10;;;;;;10436788;28;20225;-82
2022/05/20 16:05:18;;;;;;;6.77;4.97;;;27.40;77.40;;;;;;10443545;28;20221;-82
2022/05/20 16:10:24;;;;;;;5.40;4.37;;;27.30;78.50;;;;;;10438986;28;20593;-79
2022/05/20 16:15:26;;;;;;;7.00;5.13;;;27.20;79.90;;;;;;10416568;28;20197;-79
2022/05/20 16:20:30;;;;;;;5.57;4.87;;;27.00;78.90;;;;;;10432841;28;20254;-80
2022/05/20 16:25:34;;;;;;;8.20;4.50;;;26.90;79.60;;;;;;10428535;28;20221;-81
2022/05/20 16:30:36;;;;;;;8.70;4.80;;;26.70;80.30;;;;;;10458484;28;20222;-81
2022/05/20 16:35:38;;;;;;;4.63;4.23;;;26.60;81.40;;;;;;10451608;28;20197;-80
2022/05/20 16:40:42;;;;;;;5.57;5.03;;;26.50;83.10;;;;;;10437905;28;20229;-79
2022/05/20 16:45:44;;;;;;;7.00;5.37;;;26.50;84.60;;;;;;10433349;28;20252;-82
2022/05/20 16:50:49;;;;;;;5.20;4.80;;;26.50;84.10;;;;;;10433464;28;20229;-82
2022/05/20 17:01:45;;;;;;;8.37;4.50;;;26.40;83.40;;;;;;10431323;28;20243;-82
2022/05/20 17:06:37;;;;;;;6.97;5.00;;;26.50;83.50;;;;;;10445878;28;20249;-81
2022/05/20 17:11:42;;;;;;;5.70;5.17;;;26.50;83.80;;;;;;10452077;28;20205;-81
2022/05/20 17:16:47;;;;;;;4.80;4.33;;;26.40;83.50;;;;;;10458464;28;20233;-81
2022/05/20 17:27:15;;;;;;;13.43;5.27;;;26.40;88.40;;;;;;10454903;28;20225;-81
2022/05/20 17:32:19;;;;;;;6.30;4.47;;;26.40;87.10;;;;;;10436695;28;20231;-80
2022/05/20 17:37:23;;;;;;;8.60;5.27;;;26.40;89.20;;;;;;10440313;28;20213;-80
2022/05/20 17:42:27;;;;;;;10.50;6.17;;;26.40;90.30;;;;;;10462163;28;20209;-81
2022/05/20 17:47:30;;;;;;;5.83;5.33;;;26.40;90.50;;;;;;10469744;28;20221;-82
2022/05/20 17:52:32;;;;;;;5.60;5.10;;;26.40;90.60;;;;;;10432063;28;20297;-81
2022/05/20 17:57:36;;;;;;;7.93;5.40;;;26.40;90.80;;;;;;10460412;28;20288;-82
2022/05/20 18:02:38;;;;;;;7.07;5.30;;;26.30;90.50;;;;;;10461544;28;20197;-81
2022/05/20 18:07:42;;;;;;;7.23;5.40;;;26.20;91.00;;;;;;10444462;28;20221;-81
2022/05/20 18:12:46;;;;;;;6.60;5.90;;;26.10;91.20;;;;;;10424795;28;20198;-83
2022/05/20 18:17:53;;;;;;;6.83;6.23;;;26.10;90.60;;;;;;10440866;28;20331;-82
2022/05/20 18:22:55;;;;;;;8.00;5.13;;;26.10;90.10;;;;;;10463370;28;20213;-83
2022/05/20 18:27:58;;;;;;;6.53;5.90;;;25.90;90.50;;;;;;10444699;28;20288;-82
2022/05/20 18:33:01;;;;;;;7.00;6.40;;;25.90;90.10;;;;;;10463653;28;20541;-83
2022/05/20 18:43:24;;;;;;;9.20;6.30;;;25.70;90.70;;;;;;10429005;28;20291;-84
2022/05/20 18:48:26;;;;;;;12.83;6.53;;;25.60;91.10;;;;;;10459989;28;20229;-83
2022/05/20 18:53:28;;;;;;;5.23;4.73;;;25.60;91.80;;;;;;10428172;28;20293;-83
2022/05/20 18:58:33;;;;;;;5.77;5.27;;;25.50;87.40;;;;;;10454789;28;20224;-82
2022/05/20 19:03:45;;;;;;;6.00;4.10;;;25.50;86.20;;;;;;10372092;28;20202;-83
2022/05/20 19:08:48;;;;;;;7.67;4.43;;;25.50;82.10;;;;;;10428512;28;20221;-84
2022/05/20 19:13:52;;;;;;;5.87;5.27;;;25.50;82.00;;;;;;10414143;28;20202;-82
2022/05/20 19:18:54;;;;;;;4.67;4.27;;;25.50;84.10;;;;;;10436383;28;20224;-82
2022/05/20 19:23:56;;;;;;;6.10;3.97;;;25.50;81.90;;;;;;10431878;28;20213;-83
2022/05/20 19:29:00;;;;;;;10.37;4.50;;;25.40;80.90;;;;;;10453324;28;20267;-82
2022/05/20 19:34:02;;;;;;;8.23;4.87;;;25.30;80.30;;;;;;10450914;28;20809;-84
2022/05/20 19:39:04;;;;;;;6.60;4.60;;;25.30;78.70;;;;;;10430872;28;20270;-82
2022/05/20 19:44:09;;;;;;;7.90;4.90;;;25.30;76.60;;;;;;10429686;28;20255;-84
2022/05/20 19:49:12;;;;;;;7.23;5.30;;;25.40;81.80;;;;;;10441204;28;20237;-81
2022/05/20 19:54:15;;;;;;;8.33;4.80;;;25.40;82.00;;;;;;10425897;28;20575;-82
2022/05/20 20:04:38;;;;;;;5.00;4.60;;;25.30;83.80;;;;;;10412144;28;20220;-83
2022/05/20 20:09:40;;;;;;;6.63;4.70;;;25.20;84.10;;;;;;10424624;28;20221;-80
2022/05/20 20:14:47;;;;;;;5.13;4.70;;;25.10;85.30;;;;;;10435362;28;20201;-82
2022/05/20 20:19:49;;;;;;;8.73;5.50;;;25.10;86.30;;;;;;10433207;28;20347;-83
2022/05/20 20:30:13;;;;;;;6.97;6.27;;;24.80;88.70;;;;;;10447853;28;20633;-82
2022/05/20 20:35:15;;;;;;;5.97;5.37;;;24.70;89.90;;;;;;10441225;28;20683;-81
2022/05/20 20:40:19;;;;;;;6.20;5.70;;;24.50;90.60;;;;;;10439053;28;20725;-80
2022/05/20 20:45:23;;;;;;;7.00;6.23;;;24.30;90.90;;;;;;10436957;28;20289;-80
2022/05/20 20:50:28;;;;;;;8.50;6.50;;;24.20;91.40;;;;;;10418670;28;20225;-82
2022/05/20 20:55:30;;;;;;;8.90;8.10;;;24.00;92.30;;;;;;10430164;28;20606;-80
2022/05/20 21:00:35;;;;;;;10.63;9.73;;;23.90;95.80;;;;;;10445651;28;20247;-82
2022/05/20 21:05:38;;;;;;;9.37;8.50;;;23.30;98.40;;;;;;10438921;28;20312;-81
2022/05/20 21:10:40;;;;;;;12.57;11.37;;;22.70;99.90;;;;;;10427387;28;20659;-82
2022/05/20 21:15:45;;;;;;;9.17;8.33;;;22.30;99.90;;;;;;10433812;28;20268;-81
2022/05/20 21:20:48;;;;;;;12.07;10.97;;;22.00;99.90;;;;;;10440192;28;20240;-82
2022/05/20 21:25:53;;;;;;;10.53;9.53;;;21.80;99.90;;;;;;10422501;28;20217;-83
2022/05/20 21:30:58;;;;;;;10.80;8.73;;;21.60;99.90;;;;;;10426593;28;20362;-85
2022/05/20 21:36:00;;;;;;;9.40;8.50;;;21.50;99.90;;;;;;10408431;28;20206;-84
2022/05/20 21:41:02;;;;;;;9.27;8.37;;;21.30;99.90;;;;;;10445211;28;20304;-84
2022/05/20 21:51:23;;;;;;;8.53;7.83;;;21.20;99.90;;;;;;10428643;28;20233;-83
2022/05/20 21:56:25;;;;;;;9.00;8.10;;;21.20;99.90;;;;;;10440785;28;20224;-85
2022/05/20 22:12:09;;;;;;;7.33;6.47;;;21.50;99.90;;;;;;10406857;28;20673;-85
2022/05/20 22:17:13;;;;;;;6.93;6.33;;;21.60;99.90;;;;;;10405454;28;20260;-83
2022/05/20 22:22:16;;;;;;;6.77;6.17;;;21.60;99.90;;;;;;10411914;28;20201;-84
2022/05/20 22:27:18;;;;;;;6.30;5.70;;;21.60;99.90;;;;;;10456943;28;20259;-85
2022/05/20 22:32:26;;;;;;;6.43;5.83;;;21.60;99.90;;;;;;10427906;28;20762;-85
2022/05/20 22:37:30;;;;;;;9.77;8.00;;;21.50;99.90;;;;;;10419743;28;20217;-85
2022/05/20 22:42:33;;;;;;;6.77;6.00;;;21.50;99.90;;;;;;10444648;28;20197;-83
2022/05/20 22:47:37;;;;;;;6.00;5.50;;;21.50;99.90;;;;;;10427888;28;20225;-82
2022/05/20 22:52:39;;;;;;;5.70;5.30;;;21.50;99.90;;;;;;10428080;28;20961;-85
2022/05/20 22:57:43;;;;;;;6.60;5.93;;;21.50;99.90;;;;;;10432682;28;20267;-85
2022/05/20 23:02:47;;;;;;;5.97;5.30;;;21.50;99.90;;;;;;10398330;28;20233;-83
2022/05/20 23:07:49;;;;;;;5.80;5.47;;;21.40;99.90;;;;;;10462967;28;20221;-83
2022/05/20 23:12:51;;;;;;;5.83;5.43;;;21.40;99.90;;;;;;10439269;28;20197;-82
2022/05/20 23:17:55;;;;;;;5.77;5.37;;;21.30;99.90;;;;;;10450220;28;20271;-80
2022/05/20 23:22:57;;;;;;;4.80;4.40;;;21.20;99.90;;;;;;10459468;28;20197;-82
2022/05/20 23:27:59;;;;;;;5.63;5.23;;;21.20;99.90;;;;;;10409318;28;20287;-81
2022/05/20 23:33:03;;;;;;;6.33;4.37;;;21.10;99.90;;;;;;10433429;28;20557;-82
2022/05/20 23:38:08;;;;;;;5.27;4.77;;;21.10;99.90;;;;;;10387355;28;20300;-84
2022/05/20 23:43:12;;;;;;;4.90;4.60;;;21.10;99.90;;;;;;10410605;28;20202;-80
2022/05/20 23:48:16;;;;;;;5.90;5.40;;;21.00;99.90;;;;;;10444723;22;20217;-76
2022/05/20 23:53:18;;;;;;;5.87;5.10;;;21.00;99.90;;;;;;10437827;28;20192;-76
2022/05/20 23:58:20;;;;;;;5.23;4.93;;;20.90;99.90;;;;;;10433988;28;20246;-76
